Minot AFB, North Dakota
Current Conditions -  °F | °C
As of 1:59 AM on Monday 26 Jan 2015 (Local Time) from KMIB Reporting Station
Broken Clouds Broken Clouds  
Wind Chill: 27°   Ceiling: 11000
Heat Index: 37°   Visibility: 10mi
Dew Point: 36°   Wind: 20mph
Humidity: 93%   Direction: 300°WNW
Pressure: 29.74"   Gusts: NA
Location:  48.42°N, 101.33°W
Report Text: KMIB 260759Z AUTO 30017KT 10SM BKN110 03/02 A2974 RMK AO2 SLP094
Loading
Personal Weather Stations






























Interactive Weather Map New forecast layout! Learn more

10-Day Weather Forecast

Advertisements
Track Severe Weather on mobile